KAVL/AVL METAR and TAF weather

Enter ICAO airport designator
Station Type Date Time Source
KAVL METAR 2021/05/12 01:54 UTC NOAA

KAVL 120154Z 34005KT 10SM OVC090 16/08 A3015 RMK AO2 SLP194 T01610078


Station Type Date Time Source
KAVL Decoded METAR 2021/05/12 01:54 UTC NOAA

ASHEVILLE REGIONAL AIRPORT, NC, United States (KAVL) 35-26N 82-32W 670M
May 11, 2021 - 09:54 PM EDT / 2021.05.12 0154 UTC
Wind: from the NNW (340 degrees) at 6 MPH (5 KT):0
Visibility: 10 mile(s):0
Sky conditions: overcast
Temperature: 61.0 F (16.1 C)
Dew Point: 46.0 F (7.8 C)
Relative Humidity: 57%
Pressure (altimeter): 30.15 in. Hg (1020 hPa)
ob: KAVL 120154Z 34005KT 10SM OVC090 16/08 A3015 RMK AO2 SLP194 T01610078
cycle: 2

Station Type Date Time Source
KAVL TAF 2021/05/11 20:09 UTC NOAA

TAF
AMD KAVL 112006Z 1120/1218 VRB06KT P6SM BKN035 OVC045
FM112200 34006KT P6SM VCSH OVC040
FM120300 33004KT P6SM BKN070 PROB30 1205/1211 4SM -RA BR OVC025
FM121100 04005KT 6SM -RA BR OVC022
FM121300 05006KT 4SM RA BR OVC016

Example: see airport list